Belo Horizonte, Brazil

10:49 AM BRST on October 24, 2014 (GMT -0200)
Tancredo Neves International | Change Station
CLOSE
Current Station
Airport
Location: Belo Horizonte,
Elevation: 2713 ft
Nearby Weather Stations

Elev 2713 ft 19.64 °S, 43.97 °W | Updated 49 minutes ago

Clear
Clear
73 °F
Feels Like 73 °F
N
5
Wind Variable Wind from ENE

Today
High -- | Low -- °F
--% Chance of Precip.
Yesterday
High -- | Low -- °F
Precip. -- in
6:19 AM 7:00 PM
New Moon, 0% visible
Pressure 30.12 in
Visibility -9999.0 miles
Clouds
Dew Point 55 °F
Humidity 53%
Rainfall 0.00 in
Snow Depth Not available.
UV Not available.
Pollen Not available.
Air Quality Not available.
Flu Activity Not available.
METAR SBCF 241200Z 06004KT CAVOK 23/13 Q1020

More Conditions Fewer Conditions

Pressure 30.12 in
Visibility -9999.0 miles
Clouds
Dew Point 55 °F
Humidity 53%
Rainfall 0.00 in
Snow Depth Not available.
UV Not available.
Pollen Not available.
Air Quality Not available.
Flu Activity Not available.
METAR SBCF 241200Z 06004KT CAVOK 23/13 Q1020

More Conditions Fewer Conditions

10-Day Weather Forecast

Almanac

Astronomy

Oct. 24, 2014 Rise Set
Actual Time 6:19 AM BRST 7:00 PM BRST
Civil Twilight 5:56 AM BRST 7:23 PM BRST
Nautical Twilight 5:30 AM BRST 7:50 PM BRST
Astronomical Twilight 5:03 AM BRST 8:17 PM BRST
Moon 6:45 AM BRST 7:48 PM BRST
Length of Visible Light 13h 26m
Length of Day
12h 41m
Tomorrow will be 1m 3s longer.
New Moon, 0% of the Moon is Illuminated
Today
New Moon
Oct 30
First Quarter
Nov 6
Full
Nov 14
Last Quarter
Nov 22
New

Yesterday's Extremes

Country Highs Country Lows

Community

WunderPhotos

Upload Photos

1,764,544 photos uploaded!

Nearby

Snow Depth

Not available.

Earthquake Activity

City Distance Mag. Time & Date
No recent earthquake activity has been reported nearby.
Minimum magnitude displayed is 2.5.

Coastal Water Temperatures

Place Temperature
No Stations Reporting

Nearby Weather Stations